Brownsville, Illinois
Current Conditions -  °F | °C
As of 10:35 AM on Wednesday 22 Oct 2014 (Local Time) from KCUL Reporting Station
Clear Clear  
Wind Chill: 56°   Ceiling: Unl
Heat Index: 56°   Visibility: 10mi
Dew Point: 43°   Wind: 8mph
Humidity: 63%   Direction: 80°E
Pressure: 30.33"   Gusts: NA
Location:  38.0491°N, 88.1124°W
Report Text: KCUL 221535Z AUTO 08007KT 10SM CLR 13/06 A3033 RMK AO2 T01320062
Loading
Personal Weather Stations






























Interactive Weather Map
Tropical Storm Tracking
New forecast layout! Learn more

10-Day Weather Forecast

Advertisements
Track Severe Weather on mobile